sensor_id;sensor_type;location;lat;lon;timestamp;pressure;altitude;pressure_sealevel;temperature;humidity
75317;BME280;63913;51.492;10.368;2022-10-15T00:00:27;97645.41;;;13.19;86.76
75317;BME280;63913;51.492;10.368;2022-10-15T00:02:52;97645.41;;;13.16;86.95
75317;BME280;63913;51.492;10.368;2022-10-15T00:05:17;97643.69;;;13.18;86.74
75317;BME280;63913;51.492;10.368;2022-10-15T00:07:43;97648.00;;;13.18;86.67
75317;BME280;63913;51.492;10.368;2022-10-15T00:10:08;97652.28;;;13.16;86.90
75317;BME280;63913;51.492;10.368;2022-10-15T00:12:36;97654.88;;;13.11;87.43
75317;BME280;63913;51.492;10.368;2022-10-15T00:15:03;97650.56;;;13.09;87.00
75317;BME280;63913;51.492;10.368;2022-10-15T00:17:29;97640.25;;;13.10;87.15
75317;BME280;63913;51.492;10.368;2022-10-15T00:19:55;97638.53;;;13.14;86.71
75317;BME280;63913;51.492;10.368;2022-10-15T00:22:20;97635.09;;;13.18;86.64
75317;BME280;63913;51.492;10.368;2022-10-15T00:24:45;97626.47;;;13.13;87.18
75317;BME280;63913;51.492;10.368;2022-10-15T00:27:10;97631.63;;;13.14;86.54
75317;BME280;63913;51.492;10.368;2022-10-15T00:29:36;97635.94;;;13.12;86.28
75317;BME280;63913;51.492;10.368;2022-10-15T00:32:01;97639.38;;;13.14;86.56
75317;BME280;63913;51.492;10.368;2022-10-15T00:34:26;97644.56;;;13.19;86.54
75317;BME280;63913;51.492;10.368;2022-10-15T00:36:52;97637.66;;;13.18;86.25
75317;BME280;63913;51.492;10.368;2022-10-15T00:39:17;97648.03;;;13.13;86.82
75317;BME280;63913;51.492;10.368;2022-10-15T00:41:43;97651.44;;;13.15;86.51
75317;BME280;63913;51.492;10.368;2022-10-15T00:46:51;97632.50;;;13.18;86.31
75317;BME280;63913;51.492;10.368;2022-10-15T00:49:19;97638.50;;;13.23;85.72
75317;BME280;63913;51.492;10.368;2022-10-15T00:51:48;97637.69;;;13.21;86.27
75317;BME280;63913;51.492;10.368;2022-10-15T00:54:18;97637.69;;;13.19;85.95
75317;BME280;63913;51.492;10.368;2022-10-15T00:56:44;97638.53;;;13.20;86.17
75317;BME280;63913;51.492;10.368;2022-10-15T00:59:12;97626.47;;;13.22;85.74
75317;BME280;63913;51.492;10.368;2022-10-15T01:01:38;97626.47;;;13.25;86.05
75317;BME280;63913;51.492;10.368;2022-10-15T01:04:04;97615.28;;;13.23;85.87
75317;BME280;63913;51.492;10.368;2022-10-15T01:06:30;97615.28;;;13.23;86.24
75317;BME280;63913;51.492;10.368;2022-10-15T01:08:55;97623.06;;;13.21;86.17
75317;BME280;63913;51.492;10.368;2022-10-15T01:11:31;97614.44;;;13.18;86.10
75317;BME280;63913;51.492;10.368;2022-10-15T01:16:34;97615.31;;;13.17;85.54
75317;BME280;63913;51.492;10.368;2022-10-15T01:21:48;97608.41;;;13.11;86.04
75317;BME280;63913;51.492;10.368;2022-10-15T01:30:27;97599.78;;;13.08;86.58
75317;BME280;63913;51.492;10.368;2022-10-15T01:33:14;97599.81;;;13.00;86.53
75317;BME280;63913;51.492;10.368;2022-10-15T01:35:53;97598.09;;;13.02;86.66
75317;BME280;63913;51.492;10.368;2022-10-15T01:38:34;97592.97;;;12.96;86.65
75317;BME280;63913;51.492;10.368;2022-10-15T01:41:09;97598.94;;;12.99;86.64
75317;BME280;63913;51.492;10.368;2022-10-15T01:46:44;97600.72;;;12.87;86.98
75317;BME280;63913;51.492;10.368;2022-10-15T01:49:13;97599.00;;;12.77;87.16
75317;BME280;63913;51.492;10.368;2022-10-15T01:51:42;97590.41;;;12.79;87.57
75317;BME280;63913;51.492;10.368;2022-10-15T01:54:13;97588.69;;;12.80;87.60
75317;BME280;63913;51.492;10.368;2022-10-15T01:56:40;97589.53;;;12.80;87.05
75317;BME280;63913;51.492;10.368;2022-10-15T01:59:14;97584.38;;;12.74;88.10
75317;BME280;63913;51.492;10.368;2022-10-15T02:01:42;97586.97;;;12.71;88.06
75317;BME280;63913;51.492;10.368;2022-10-15T02:04:25;97580.94;;;12.71;87.88
75317;BME280;63913;51.492;10.368;2022-10-15T02:07:02;97581.81;;;12.68;87.54
75317;BME280;63913;51.492;10.368;2022-10-15T02:09:44;97576.66;;;12.64;88.04
75317;BME280;63913;51.492;10.368;2022-10-15T02:17:07;97580.97;;;12.61;88.31
75317;BME280;63913;51.492;10.368;2022-10-15T02:20:49;97586.97;;;12.60;88.26
75317;BME280;63913;51.492;10.368;2022-10-15T02:22:47;97578.34;;;12.57;87.71
75317;BME280;63913;51.492;10.368;2022-10-15T02:25:18;97576.66;;;12.56;88.36
75317;BME280;63913;51.492;10.368;2022-10-15T02:27:47;97573.22;;;12.55;88.13
75317;BME280;63913;51.492;10.368;2022-10-15T02:30:14;97573.22;;;12.52;88.78
75317;BME280;63913;51.492;10.368;2022-10-15T02:32:41;97569.78;;;12.53;88.15
75317;BME280;63913;51.492;10.368;2022-10-15T02:35:09;97562.91;;;12.55;88.77
75317;BME280;63913;51.492;10.368;2022-10-15T02:37:36;97568.94;;;12.56;88.34
75317;BME280;63913;51.492;10.368;2022-10-15T02:40:04;97563.78;;;12.53;88.99
75317;BME280;63913;51.492;10.368;2022-10-15T02:42:29;97561.19;;;12.54;88.64
75317;BME280;63913;51.492;10.368;2022-10-15T02:44:55;97562.03;;;12.52;88.42
75317;BME280;63913;51.492;10.368;2022-10-15T02:47:20;97564.63;;;12.53;88.68
75317;BME280;63913;51.492;10.368;2022-10-15T02:49:45;97563.78;;;12.56;88.18
75317;BME280;63913;51.492;10.368;2022-10-15T02:52:11;97567.19;;;12.49;88.94
75317;BME280;63913;51.492;10.368;2022-10-15T02:54:36;97572.34;;;12.50;88.64
75317;BME280;63913;51.492;10.368;2022-10-15T02:57:01;97574.06;;;12.51;88.63
75317;BME280;63913;51.492;10.368;2022-10-15T02:59:27;97568.91;;;12.51;88.64
75317;BME280;63913;51.492;10.368;2022-10-15T03:01:52;97565.47;;;12.51;88.47
75317;BME280;63913;51.492;10.368;2022-10-15T03:04:18;97561.19;;;12.51;88.38
75317;BME280;63913;51.492;10.368;2022-10-15T03:06:43;97562.91;;;12.52;88.52
75317;BME280;63913;51.492;10.368;2022-10-15T03:09:08;97559.47;;;12.52;88.63
75317;BME280;63913;51.492;10.368;2022-10-15T03:11:34;97554.31;;;12.55;88.62
75317;BME280;63913;51.492;10.368;2022-10-15T03:13:59;97545.72;;;12.54;88.90
75317;BME280;63913;51.492;10.368;2022-10-15T03:16:25;97551.75;;;12.53;88.17
75317;BME280;63913;51.492;10.368;2022-10-15T03:18:50;97550.88;;;12.54;88.26
75317;BME280;63913;51.492;10.368;2022-10-15T03:21:15;97544.00;;;12.52;88.45
75317;BME280;63913;51.492;10.368;2022-10-15T03:23:40;97544.00;;;12.52;88.13
75317;BME280;63913;51.492;10.368;2022-10-15T03:26:06;97546.56;;;12.53;88.84
75317;BME280;63913;51.492;10.368;2022-10-15T03:28:31;97544.84;;;12.52;88.38
75317;BME280;63913;51.492;10.368;2022-10-15T03:30:57;97534.53;;;12.51;87.96
75317;BME280;63913;51.492;10.368;2022-10-15T03:33:22;97538.84;;;12.50;88.46
75317;BME280;63913;51.492;10.368;2022-10-15T03:35:48;97532.84;;;12.47;88.25
75317;BME280;63913;51.492;10.368;2022-10-15T03:38:13;97535.41;;;12.45;87.99
75317;BME280;63913;51.492;10.368;2022-10-15T03:40:38;97536.25;;;12.43;88.27
75317;BME280;63913;51.492;10.368;2022-10-15T03:43:04;97543.13;;;12.42;88.77
75317;BME280;63913;51.492;10.368;2022-10-15T03:45:29;97544.00;;;12.41;88.33
75317;BME280;63913;51.492;10.368;2022-10-15T03:47:54;97550.00;;;12.42;89.15
75317;BME280;63913;51.492;10.368;2022-10-15T03:50:20;97543.16;;;12.38;88.40
75317;BME280;63913;51.492;10.368;2022-10-15T03:52:45;97541.41;;;12.34;89.21
75317;BME280;63913;51.492;10.368;2022-10-15T03:55:10;97550.00;;;12.34;88.85
75317;BME280;63913;51.492;10.368;2022-10-15T03:57:37;97552.59;;;12.37;88.71
75317;BME280;63913;51.492;10.368;2022-10-15T04:00:04;97556.03;;;12.30;89.01
75317;BME280;63913;51.492;10.368;2022-10-15T04:02:30;97559.47;;;12.38;88.79
75317;BME280;63913;51.492;10.368;2022-10-15T04:04:56;97553.44;;;12.41;88.88
75317;BME280;63913;51.492;10.368;2022-10-15T04:07:22;97558.59;;;12.42;88.46
75317;BME280;63913;51.492;10.368;2022-10-15T04:09:47;97553.47;;;12.47;88.49
75317;BME280;63913;51.492;10.368;2022-10-15T04:12:13;97553.44;;;12.50;88.62
75317;BME280;63913;51.492;10.368;2022-10-15T04:14:39;97563.78;;;12.47;88.66
75317;BME280;63913;51.492;10.368;2022-10-15T04:17:04;97565.50;;;12.48;88.89
75317;BME280;63913;51.492;10.368;2022-10-15T04:19:29;97570.63;;;12.51;88.62
75317;BME280;63913;51.492;10.368;2022-10-15T04:21:55;97559.47;;;12.50;88.38
75317;BME280;63913;51.492;10.368;2022-10-15T04:24:20;97564.63;;;12.49;88.07
75317;BME280;63913;51.492;10.368;2022-10-15T04:26:46;97568.06;;;12.49;88.25
75317;BME280;63913;51.492;10.368;2022-10-15T04:29:11;97565.47;;;12.49;88.72
75317;BME280;63913;51.492;10.368;2022-10-15T04:31:36;97558.59;;;12.50;88.35
75317;BME280;63913;51.492;10.368;2022-10-15T04:34:03;97556.91;;;12.47;88.28
75317;BME280;63913;51.492;10.368;2022-10-15T04:36:28;97565.47;;;12.49;87.92
75317;BME280;63913;51.492;10.368;2022-10-15T04:38:54;97571.50;;;12.44;88.51
75317;BME280;63913;51.492;10.368;2022-10-15T04:41:19;97575.81;;;12.40;88.56
75317;BME280;63913;51.492;10.368;2022-10-15T04:43:45;97578.38;;;12.42;88.59
75317;BME280;63913;51.492;10.368;2022-10-15T04:46:10;97563.75;;;12.41;88.82
75317;BME280;63913;51.492;10.368;2022-10-15T04:48:37;97568.91;;;12.41;88.97
75317;BME280;63913;51.492;10.368;2022-10-15T04:51:07;97576.66;;;12.41;88.93
75317;BME280;63913;51.492;10.368;2022-10-15T04:53:33;97581.81;;;12.36;88.95
75317;BME280;63913;51.492;10.368;2022-10-15T04:56:04;97576.66;;;12.36;89.11
75317;BME280;63913;51.492;10.368;2022-10-15T04:58:32;97575.81;;;12.39;89.76
75317;BME280;63913;51.492;10.368;2022-10-15T05:00:59;97587.84;;;12.38;89.22
75317;BME280;63913;51.492;10.368;2022-10-15T05:03:25;97583.53;;;12.39;88.61
75317;BME280;63913;51.492;10.368;2022-10-15T05:05:50;97582.69;;;12.38;88.84
75317;BME280;63913;51.492;10.368;2022-10-15T05:08:15;97570.66;;;12.39;89.09
75317;BME280;63913;51.492;10.368;2022-10-15T05:10:40;97566.34;;;12.39;88.89
75317;BME280;63913;51.492;10.368;2022-10-15T05:13:06;97573.22;;;12.37;89.02
75317;BME280;63913;51.492;10.368;2022-10-15T05:15:31;97581.81;;;12.36;88.65
75317;BME280;63913;51.492;10.368;2022-10-15T05:17:56;97587.81;;;12.35;88.83
75317;BME280;63913;51.492;10.368;2022-10-15T05:20:22;97574.94;;;12.37;88.56
75317;BME280;63913;51.492;10.368;2022-10-15T05:22:47;97569.78;;;12.34;89.06
75317;BME280;63913;51.492;10.368;2022-10-15T05:25:12;97572.38;;;12.31;89.17
75317;BME280;63913;51.492;10.368;2022-10-15T05:27:38;97568.06;;;12.28;88.66
75317;BME280;63913;51.492;10.368;2022-10-15T05:30:04;97568.06;;;12.27;89.10
75317;BME280;63913;51.492;10.368;2022-10-15T05:32:29;97570.63;;;12.25;88.78
75317;BME280;63913;51.492;10.368;2022-10-15T05:34:55;97574.91;;;12.24;88.86
75317;BME280;63913;51.492;10.368;2022-10-15T05:37:20;97575.81;;;12.23;88.68
75317;BME280;63913;51.492;10.368;2022-10-15T05:39:45;97571.47;;;12.18;88.44
75317;BME280;63913;51.492;10.368;2022-10-15T05:42:11;97576.63;;;12.16;89.05
75317;BME280;63913;51.492;10.368;2022-10-15T05:44:36;97575.78;;;12.14;89.49
75317;BME280;63913;51.492;10.368;2022-10-15T05:47:01;97579.22;;;12.16;88.97
75317;BME280;63913;51.492;10.368;2022-10-15T05:49:27;97577.50;;;12.17;88.86
75317;BME280;63913;51.492;10.368;2022-10-15T05:51:52;97585.22;;;12.18;89.36
75317;BME280;63913;51.492;10.368;2022-10-15T05:54:17;97586.97;;;12.19;89.29
75317;BME280;63913;51.492;10.368;2022-10-15T05:56:43;97583.50;;;12.17;89.34
75317;BME280;63913;51.492;10.368;2022-10-15T05:59:08;97586.09;;;12.19;89.29
75317;BME280;63913;51.492;10.368;2022-10-15T06:01:33;97588.66;;;12.19;88.92
75317;BME280;63913;51.492;10.368;2022-10-15T06:03:58;97599.84;;;12.18;88.89
75317;BME280;63913;51.492;10.368;2022-10-15T06:06:25;97606.72;;;12.20;89.41
75317;BME280;63913;51.492;10.368;2022-10-15T06:08:51;97601.56;;;12.17;88.80
75317;BME280;63913;51.492;10.368;2022-10-15T06:11:17;97607.56;;;12.18;89.12
75317;BME280;63913;51.492;10.368;2022-10-15T06:13:44;97605.00;;;12.18;89.24
75317;BME280;63913;51.492;10.368;2022-10-15T06:16:10;97617.03;;;12.20;89.39
75317;BME280;63913;51.492;10.368;2022-10-15T06:18:36;97624.75;;;12.17;89.11
75317;BME280;63913;51.492;10.368;2022-10-15T06:21:03;97624.75;;;12.19;89.15
75317;BME280;63913;51.492;10.368;2022-10-15T06:23:28;97635.06;;;12.20;89.86
75317;BME280;63913;51.492;10.368;2022-10-15T06:25:55;97635.09;;;12.23;89.12
75317;BME280;63913;51.492;10.368;2022-10-15T06:28:20;97627.34;;;12.23;89.67
75317;BME280;63913;51.492;10.368;2022-10-15T06:30:46;97624.78;;;12.23;89.40
75317;BME280;63913;51.492;10.368;2022-10-15T06:33:11;97622.19;;;12.28;89.13
75317;BME280;63913;51.492;10.368;2022-10-15T06:35:37;97629.94;;;12.30;89.78
75317;BME280;63913;51.492;10.368;2022-10-15T06:38:03;97623.91;;;12.34;89.62
75317;BME280;63913;51.492;10.368;2022-10-15T06:40:30;97624.75;;;12.34;89.36
75317;BME280;63913;51.492;10.368;2022-10-15T06:43:08;97623.06;;;12.36;89.69
75317;BME280;63913;51.492;10.368;2022-10-15T06:45:35;97622.22;;;12.39;89.71
75317;BME280;63913;51.492;10.368;2022-10-15T06:48:02;97624.78;;;12.43;89.85
75317;BME280;63913;51.492;10.368;2022-10-15T06:50:33;97624.78;;;12.43;89.97
75317;BME280;63913;51.492;10.368;2022-10-15T06:52:58;97627.38;;;12.48;89.76
75317;BME280;63913;51.492;10.368;2022-10-15T06:55:24;97621.34;;;12.46;89.53
75317;BME280;63913;51.492;10.368;2022-10-15T06:57:50;97630.81;;;12.47;90.03
75317;BME280;63913;51.492;10.368;2022-10-15T07:00:16;97636.81;;;12.49;89.85
75317;BME280;63913;51.492;10.368;2022-10-15T07:02:42;97631.66;;;12.49;90.15
75317;BME280;63913;51.492;10.368;2022-10-15T07:05:10;97638.56;;;12.48;89.72
75317;BME280;63913;51.492;10.368;2022-10-15T07:07:36;97647.16;;;12.55;89.59
75317;BME280;63913;51.492;10.368;2022-10-15T07:10:01;97650.56;;;12.57;90.18
75317;BME280;63913;51.492;10.368;2022-10-15T07:12:26;97650.56;;;12.57;89.49
75317;BME280;63913;51.492;10.368;2022-10-15T07:14:52;97654.88;;;12.63;89.58
75317;BME280;63913;51.492;10.368;2022-10-15T07:17:17;97648.00;;;12.63;88.80
75317;BME280;63913;51.492;10.368;2022-10-15T07:19:42;97649.72;;;12.73;89.08
75317;BME280;63913;51.492;10.368;2022-10-15T07:22:08;97654.03;;;12.77;88.64
75317;BME280;63913;51.492;10.368;2022-10-15T07:24:34;97652.28;;;12.82;88.99
75317;BME280;63913;51.492;10.368;2022-10-15T07:26:59;97661.75;;;12.86;89.39
75317;BME280;63913;51.492;10.368;2022-10-15T07:29:24;97660.91;;;12.89;89.08
75317;BME280;63913;51.492;10.368;2022-10-15T07:31:50;97672.94;;;12.90;89.40
75317;BME280;63913;51.492;10.368;2022-10-15T07:34:15;97669.50;;;12.94;88.85
75317;BME280;63913;51.492;10.368;2022-10-15T07:36:40;97666.94;;;12.95;88.48
75317;BME280;63913;51.492;10.368;2022-10-15T07:39:06;97672.06;;;12.98;88.77
75317;BME280;63913;51.492;10.368;2022-10-15T07:41:31;97672.06;;;13.03;88.41
75317;BME280;63913;51.492;10.368;2022-10-15T07:43:56;97674.66;;;13.03;88.45
75317;BME280;63913;51.492;10.368;2022-10-15T07:46:21;97681.53;;;13.07;88.96
75317;BME280;63913;51.492;10.368;2022-10-15T07:48:47;97688.41;;;13.11;89.31
75317;BME280;63913;51.492;10.368;2022-10-15T07:51:12;97681.53;;;13.10;89.55
75317;BME280;63913;51.492;10.368;2022-10-15T07:53:38;97685.84;;;13.10;89.12
75317;BME280;63913;51.492;10.368;2022-10-15T07:56:06;97684.97;;;13.08;89.09
75317;BME280;63913;51.492;10.368;2022-10-15T07:58:33;97689.28;;;13.09;89.08
75317;BME280;63913;51.492;10.368;2022-10-15T08:01:00;97690.16;;;13.14;88.75
75317;BME280;63913;51.492;10.368;2022-10-15T08:03:26;97690.13;;;13.12;88.89
75317;BME280;63913;51.492;10.368;2022-10-15T08:05:51;97696.19;;;13.19;89.01
75317;BME280;63913;51.492;10.368;2022-10-15T08:08:18;97699.63;;;13.16;89.18
75317;BME280;63913;51.492;10.368;2022-10-15T08:10:44;97706.50;;;13.13;89.25
75317;BME280;63913;51.492;10.368;2022-10-15T08:13:10;97708.22;;;13.12;88.95
75317;BME280;63913;51.492;10.368;2022-10-15T08:15:38;97710.78;;;13.14;89.32
75317;BME280;63913;51.492;10.368;2022-10-15T08:18:04;97712.53;;;13.15;89.24
75317;BME280;63913;51.492;10.368;2022-10-15T08:20:29;97711.66;;;13.19;88.98
75317;BME280;63913;51.492;10.368;2022-10-15T08:22:54;97715.09;;;13.18;88.16
75317;BME280;63913;51.492;10.368;2022-10-15T08:25:20;97710.81;;;13.21;87.52
75317;BME280;63913;51.492;10.368;2022-10-15T08:27:45;97703.94;;;13.29;88.70
75317;BME280;63913;51.492;10.368;2022-10-15T08:30:10;97709.94;;;13.28;88.14
75317;BME280;63913;51.492;10.368;2022-10-15T08:32:36;97709.91;;;13.42;88.36
75317;BME280;63913;51.492;10.368;2022-10-15T08:35:01;97709.06;;;13.45;87.78
75317;BME280;63913;51.492;10.368;2022-10-15T08:37:26;97703.00;;;13.50;87.23
75317;BME280;63913;51.492;10.368;2022-10-15T08:39:52;97705.56;;;13.59;87.53
75317;BME280;63913;51.492;10.368;2022-10-15T08:42:21;97708.13;;;13.68;87.55
75317;BME280;63913;51.492;10.368;2022-10-15T08:44:54;97702.09;;;13.71;87.38
75317;BME280;63913;51.492;10.368;2022-10-15T08:47:33;97713.31;;;13.70;87.83
75317;BME280;63913;51.492;10.368;2022-10-15T08:50:03;97709.00;;;13.67;87.82
75317;BME280;63913;51.492;10.368;2022-10-15T08:52:49;97720.19;;;13.63;87.67
75317;BME280;63913;51.492;10.368;2022-10-15T08:55:18;97712.44;;;13.65;88.37
75317;BME280;63913;51.492;10.368;2022-10-15T09:00:24;97720.19;;;13.69;87.82
75317;BME280;63913;51.492;10.368;2022-10-15T09:03:03;97716.72;;;13.72;87.27
75317;BME280;63913;51.492;10.368;2022-10-15T09:05:32;97724.47;;;13.73;87.89
75317;BME280;63913;51.492;10.368;2022-10-15T09:14:15;97722.75;;;13.77;87.29
75317;BME280;63913;51.492;10.368;2022-10-15T09:16:42;97720.13;;;13.94;86.13
75317;BME280;63913;51.492;10.368;2022-10-15T09:19:18;97711.44;;;14.05;85.67
75317;BME280;63913;51.492;10.368;2022-10-15T09:21:45;97720.03;;;14.12;84.81
75317;BME280;63913;51.492;10.368;2022-10-15T09:24:16;97722.59;;;14.13;83.60
75317;BME280;63913;51.492;10.368;2022-10-15T09:26:54;97717.47;;;14.09;82.98
75317;BME280;63913;51.492;10.368;2022-10-15T09:32:29;97721.78;;;14.04;83.30
75317;BME280;63913;51.492;10.368;2022-10-15T09:35:03;97731.28;;;14.00;83.77
75317;BME280;63913;51.492;10.368;2022-10-15T09:40:36;97731.25;;;14.03;84.29
75317;BME280;63913;51.492;10.368;2022-10-15T09:43:06;97730.41;;;14.09;82.62
75317;BME280;63913;51.492;10.368;2022-10-15T09:45:34;97731.19;;;14.23;83.38
75317;BME280;63913;51.492;10.368;2022-10-15T09:48:00;97726.84;;;14.28;82.03
75317;BME280;63913;51.492;10.368;2022-10-15T09:50:34;97717.31;;;14.36;81.57
75317;BME280;63913;51.492;10.368;2022-10-15T09:53:45;97718.13;;;14.54;80.54
75317;BME280;63913;51.492;10.368;2022-10-15T09:56:16;97719.78;;;14.67;80.42
75317;BME280;63913;51.492;10.368;2022-10-15T10:01:19;97724.91;;;14.70;80.39
75317;BME280;63913;51.492;10.368;2022-10-15T10:03:50;97730.13;;;14.67;81.37
75317;BME280;63913;51.492;10.368;2022-10-15T10:06:16;97733.63;;;14.57;79.60
75317;BME280;63913;51.492;10.368;2022-10-15T10:08:54;97739.69;;;14.52;80.27
75317;BME280;63913;51.492;10.368;2022-10-15T10:11:22;97743.13;;;14.56;79.74
75317;BME280;63913;51.492;10.368;2022-10-15T10:16:15;97743.13;;;14.56;80.38
75317;BME280;63913;51.492;10.368;2022-10-15T10:18:41;97733.63;;;14.58;81.43
75317;BME280;63913;51.492;10.368;2022-10-15T10:21:39;97737.72;;;14.89;81.01
75317;BME280;63913;51.492;10.368;2022-10-15T10:24:26;97749.50;;;15.28;80.42
75317;BME280;63913;51.492;10.368;2022-10-15T10:26:54;97745.03;;;15.46;78.17
75317;BME280;63913;51.492;10.368;2022-10-15T10:29:21;97735.47;;;15.52;76.11
75317;BME280;63913;51.492;10.368;2022-10-15T10:31:47;97740.72;;;15.43;75.97
75317;BME280;63913;51.492;10.368;2022-10-15T10:34:17;97744.19;;;15.41;77.06
75317;BME280;63913;51.492;10.368;2022-10-15T10:36:50;97738.63;;;15.85;76.18
75317;BME280;63913;51.492;10.368;2022-10-15T10:39:28;97745.16;;;16.16;74.77
75317;BME280;63913;51.492;10.368;2022-10-15T10:41:56;97742.47;;;16.25;74.14
75317;BME280;63913;51.492;10.368;2022-10-15T10:47:15;97732.72;;;16.44;72.56
75317;BME280;63913;51.492;10.368;2022-10-15T10:49:50;97732.66;;;16.47;72.34
75317;BME280;63913;51.492;10.368;2022-10-15T10:52:23;97731.19;;;16.28;71.17
75317;BME280;63913;51.492;10.368;2022-10-15T10:55:16;97733.53;;;16.46;72.07
75317;BME280;63913;51.492;10.368;2022-10-15T10:57:47;97740.72;;;16.26;71.86
75317;BME280;63913;51.492;10.368;2022-10-15T11:00:20;97731.50;;;16.03;73.83
75317;BME280;63913;51.492;10.368;2022-10-15T11:02:47;97739.47;;;15.84;74.00
75317;BME280;63913;51.492;10.368;2022-10-15T11:05:16;97728.44;;;15.68;75.13
75317;BME280;63913;51.492;10.368;2022-10-15T11:08:58;97737.97;;;15.64;74.04
75317;BME280;63913;51.492;10.368;2022-10-15T11:11:00;97737.91;;;15.71;74.52
75317;BME280;63913;51.492;10.368;2022-10-15T11:13:58;97736.72;;;15.97;72.49
75317;BME280;63913;51.492;10.368;2022-10-15T11:16:45;97741.28;;;15.79;72.07
75317;BME280;63913;51.492;10.368;2022-10-15T11:19:38;97733.59;;;15.70;72.47
75317;BME280;63913;51.492;10.368;2022-10-15T11:25:29;97730.16;;;15.68;73.23
75317;BME280;63913;51.492;10.368;2022-10-15T11:28:26;97731.88;;;15.67;73.00
75317;BME280;63913;51.492;10.368;2022-10-15T11:36:09;97729.94;;;15.89;72.00
75317;BME280;63913;51.492;10.368;2022-10-15T11:41:22;97728.94;;;15.97;72.14
75317;BME280;63913;51.492;10.368;2022-10-15T11:51:46;97708.38;;;15.85;69.90
75317;BME280;63913;51.492;10.368;2022-10-15T11:54:28;97704.91;;;15.86;71.05
75317;BME280;63913;51.492;10.368;2022-10-15T11:56:56;97716.91;;;15.92;70.21
75317;BME280;63913;51.492;10.368;2022-10-15T12:02:36;97708.66;;;16.31;69.83
75317;BME280;63913;51.492;10.368;2022-10-15T12:05:13;97710.16;;;16.48;68.93
75317;BME280;63913;51.492;10.368;2022-10-15T12:07:48;97704.28;;;16.36;69.43
75317;BME280;63913;51.492;10.368;2022-10-15T12:18:49;97702.00;;;16.11;70.16
75317;BME280;63913;51.492;10.368;2022-10-15T12:21:34;97692.53;;;16.07;69.64
75317;BME280;63913;51.492;10.368;2022-10-15T12:24:00;97699.56;;;15.98;70.25
75317;BME280;63913;51.492;10.368;2022-10-15T12:26:30;97698.75;;;15.96;70.49
75317;BME280;63913;51.492;10.368;2022-10-15T12:29:04;97697.88;;;15.96;71.07
75317;BME280;63913;51.492;10.368;2022-10-15T12:31:49;97701.38;;;15.92;70.91
75317;BME280;63913;51.492;10.368;2022-10-15T12:34:41;97698.00;;;15.85;71.35
75317;BME280;63913;51.492;10.368;2022-10-15T12:37:17;97699.75;;;15.82;70.89
75317;BME280;63913;51.492;10.368;2022-10-15T12:39:43;97692.03;;;15.79;71.25
75317;BME280;63913;51.492;10.368;2022-10-15T12:44:52;97698.13;;;15.73;71.27
75317;BME280;63913;51.492;10.368;2022-10-15T12:53:04;97695.66;;;15.64;72.27
75317;BME280;63913;51.492;10.368;2022-10-15T12:55:36;97691.34;;;15.64;71.87
75317;BME280;63913;51.492;10.368;2022-10-15T13:00:45;97701.66;;;15.68;72.80
75317;BME280;63913;51.492;10.368;2022-10-15T13:03:31;97688.69;;;15.68;73.36
75317;BME280;63913;51.492;10.368;2022-10-15T13:06:13;97696.44;;;15.69;73.51
75317;BME280;63913;51.492;10.368;2022-10-15T13:08:43;97699.09;;;15.64;74.21
75317;BME280;63913;51.492;10.368;2022-10-15T13:11:18;97699.09;;;15.64;74.28
75317;BME280;63913;51.492;10.368;2022-10-15T13:13:45;97700.78;;;15.65;74.24
75317;BME280;63913;51.492;10.368;2022-10-15T13:16:14;97708.56;;;15.65;74.00
75317;BME280;63913;51.492;10.368;2022-10-15T13:18:40;97705.16;;;15.62;73.89
75317;BME280;63913;51.492;10.368;2022-10-15T13:21:07;97692.22;;;15.62;73.92
75317;BME280;63913;51.492;10.368;2022-10-15T13:23:33;97700.84;;;15.62;73.96
75317;BME280;63913;51.492;10.368;2022-10-15T13:26:25;97703.50;;;15.56;74.46
75317;BME280;63913;51.492;10.368;2022-10-15T13:28:53;97700.06;;;15.54;74.32
75317;BME280;63913;51.492;10.368;2022-10-15T13:31:34;97699.16;;;15.58;75.02
75317;BME280;63913;51.492;10.368;2022-10-15T13:34:23;97697.44;;;15.57;74.51
75317;BME280;63913;51.492;10.368;2022-10-15T13:36:50;97695.75;;;15.56;74.81
75317;BME280;63913;51.492;10.368;2022-10-15T13:41:49;97691.44;;;15.49;74.99
75317;BME280;63913;51.492;10.368;2022-10-15T13:44:21;97689.69;;;15.54;75.38
75317;BME280;63913;51.492;10.368;2022-10-15T13:46:47;97691.44;;;15.55;75.22
75317;BME280;63913;51.492;10.368;2022-10-15T13:49:13;97675.88;;;15.54;75.15
75317;BME280;63913;51.492;10.368;2022-10-15T13:51:48;97675.03;;;15.55;75.13
75317;BME280;63913;51.492;10.368;2022-10-15T13:54:28;97679.28;;;15.57;75.13
75317;BME280;63913;51.492;10.368;2022-10-15T13:56:59;97678.47;;;15.55;75.79
75317;BME280;63913;51.492;10.368;2022-10-15T13:59:26;97671.50;;;15.59;75.73
75317;BME280;63913;51.492;10.368;2022-10-15T14:02:01;97670.63;;;15.60;75.66
75317;BME280;63913;51.492;10.368;2022-10-15T14:04:30;97662.00;;;15.59;75.61
75317;BME280;63913;51.492;10.368;2022-10-15T14:07:01;97660.25;;;15.63;75.62
75317;BME280;63913;51.492;10.368;2022-10-15T14:11:53;97654.97;;;15.71;75.60
75317;BME280;63913;51.492;10.368;2022-10-15T14:16:57;97663.50;;;15.79;75.44
75317;BME280;63913;51.492;10.368;2022-10-15T14:19:24;97662.59;;;15.81;74.97
75317;BME280;63913;51.492;10.368;2022-10-15T14:21:57;97666.94;;;15.81;75.02
75317;BME280;63913;51.492;10.368;2022-10-15T14:24:36;97674.69;;;15.82;75.29
75317;BME280;63913;51.492;10.368;2022-10-15T14:29:37;97678.13;;;15.84;74.96
75317;BME280;63913;51.492;10.368;2022-10-15T14:32:17;97678.16;;;15.81;75.41
75317;BME280;63913;51.492;10.368;2022-10-15T14:34:43;97681.69;;;15.76;75.19
75317;BME280;63913;51.492;10.368;2022-10-15T14:42:45;97674.84;;;15.72;76.51